Aérodrome :
LOGIN :

S'inscrire | Disclaimer

   EN    FR    IT 

 










Légende :    VFR   VFR Marginal   IFR   IFR Intensif   IFR Très Intensif
Visi : 
Plafond : 
>= 8 km
>= 3000ft
5 à 8 km
1000 à 3000 ft
1500m à 5 km
500 à 1000 ft
800 à 1500m
200 à 500 ft
< 800m
< 200 ft
Symboles :   Orages  Brouillard  Fortes neiges  Fortes précipitations  Vent > 20 kt
SIGMETs :   Divers  Orages  Givrage  Turbulence  Onde Orograph.  Cendres Volcan.






- Altitude de l'aérodrome : 1161 ft
- Code IATA : RJL


LELO - Logroño-Agoncillo

DERNIER METAR :
  • 280200Z AUTO 09003KT 010V160 9999 BKN060 08/08 Q1018

METARs EXPIRÉS :
  • 280130Z AUTO 00000KT 9999 OVC059 08/07 Q1018
  • 280100Z AUTO 00000KT 9999 FEW058 07/06 Q1019
  • 280030Z AUTO 00000KT 9999 FEW075 08/07 Q1018
  • 280000Z AUTO 24001KT CAVOK 08/07 Q1018
  • 272330Z AUTO VRB01KT CAVOK 09/08 Q1018

TAF TAF LELO
Valide du 27 à 21h jusqu'au 28 à 21h UTC


272000Z 2721/2821 VRB05KT 9999 FEW050 TX19/2815Z TN09/2806Z



MET'MAP, la Météo Aéronautique d'un coup d'oeil ! - Copyright ORBIFLY Décembre 2007 - Disclaimer

ORBIFLY MET'MAP TEAM :

Programmation & Développement : Alexandra Zaïnal
Sur une idée originale de : Baudouin d'Aumeries
Assistance à la programmation : Marc-Olivier Méhu
Soutien technique & logistique : Manuel Goepfert

Contact : metmap@orbifly.com




SOURCES & CREDITS :

   NOAA